sensor_id;sensor_type;location;lat;lon;timestamp;temperature;humidity
52275;DHT22;38228;50.940;4.024;2024-01-16T00:01:17;1.90;99.90
52275;DHT22;38228;50.940;4.024;2024-01-16T00:03:43;1.80;99.90
52275;DHT22;38228;50.940;4.024;2024-01-16T00:06:10;1.80;99.90
52275;DHT22;38228;50.940;4.024;2024-01-16T00:08:35;1.90;99.90
52275;DHT22;38228;50.940;4.024;2024-01-16T00:11:04;1.80;99.90
52275;DHT22;38228;50.940;4.024;2024-01-16T00:13:31;1.80;99.90
52275;DHT22;38228;50.940;4.024;2024-01-16T00:15:57;1.80;99.90
52275;DHT22;38228;50.940;4.024;2024-01-16T00:18:23;1.80;99.90
52275;DHT22;38228;50.940;4.024;2024-01-16T00:20:49;1.80;99.90
52275;DHT22;38228;50.940;4.024;2024-01-16T00:23:14;1.70;99.90
52275;DHT22;38228;50.940;4.024;2024-01-16T00:25:40;1.60;99.90
52275;DHT22;38228;50.940;4.024;2024-01-16T00:28:06;1.50;99.90
52275;DHT22;38228;50.940;4.024;2024-01-16T00:30:32;1.40;99.90
52275;DHT22;38228;50.940;4.024;2024-01-16T00:32:59;1.40;99.90
52275;DHT22;38228;50.940;4.024;2024-01-16T00:35:25;1.40;99.90
52275;DHT22;38228;50.940;4.024;2024-01-16T00:37:50;1.40;99.90
52275;DHT22;38228;50.940;4.024;2024-01-16T00:40:16;1.40;99.90
52275;DHT22;38228;50.940;4.024;2024-01-16T00:42:42;1.40;99.90
52275;DHT22;38228;50.940;4.024;2024-01-16T00:45:08;1.50;99.90
52275;DHT22;38228;50.940;4.024;2024-01-16T00:47:33;1.50;99.90
52275;DHT22;38228;50.940;4.024;2024-01-16T00:49:59;1.40;99.90
52275;DHT22;38228;50.940;4.024;2024-01-16T00:52:28;1.40;99.90
52275;DHT22;38228;50.940;4.024;2024-01-16T00:54:54;1.30;99.90
52275;DHT22;38228;50.940;4.024;2024-01-16T00:57:19;1.30;99.90
52275;DHT22;38228;50.940;4.024;2024-01-16T00:59:48;1.30;99.90
52275;DHT22;38228;50.940;4.024;2024-01-16T01:02:14;1.20;99.90
52275;DHT22;38228;50.940;4.024;2024-01-16T01:04:40;1.20;99.90
52275;DHT22;38228;50.940;4.024;2024-01-16T01:07:09;1.10;99.90
52275;DHT22;38228;50.940;4.024;2024-01-16T01:09:37;1.00;99.90
52275;DHT22;38228;50.940;4.024;2024-01-16T01:12:03;1.20;99.90
52275;DHT22;38228;50.940;4.024;2024-01-16T01:14:29;1.20;99.90
52275;DHT22;38228;50.940;4.024;2024-01-16T01:16:56;1.20;99.90
52275;DHT22;38228;50.940;4.024;2024-01-16T01:19:22;1.20;99.90
52275;DHT22;38228;50.940;4.024;2024-01-16T01:21:47;1.00;99.90
52275;DHT22;38228;50.940;4.024;2024-01-16T01:24:13;1.10;99.90
52275;DHT22;38228;50.940;4.024;2024-01-16T01:26:39;1.10;99.90
52275;DHT22;38228;50.940;4.024;2024-01-16T01:29:04;1.00;99.90
52275;DHT22;38228;50.940;4.024;2024-01-16T01:31:30;0.90;99.90
52275;DHT22;38228;50.940;4.024;2024-01-16T01:33:56;0.90;99.90
52275;DHT22;38228;50.940;4.024;2024-01-16T01:36:22;0.80;99.90
52275;DHT22;38228;50.940;4.024;2024-01-16T01:38:47;0.80;99.90
52275;DHT22;38228;50.940;4.024;2024-01-16T01:41:13;0.80;99.90
52275;DHT22;38228;50.940;4.024;2024-01-16T01:43:39;0.90;99.90
52275;DHT22;38228;50.940;4.024;2024-01-16T01:46:17;0.90;99.90
52275;DHT22;38228;50.940;4.024;2024-01-16T01:48:43;0.90;99.90
52275;DHT22;38228;50.940;4.024;2024-01-16T01:51:12;0.90;99.90
52275;DHT22;38228;50.940;4.024;2024-01-16T01:53:39;0.90;99.90
52275;DHT22;38228;50.940;4.024;2024-01-16T01:56:10;1.00;99.90
52275;DHT22;38228;50.940;4.024;2024-01-16T01:58:36;1.00;99.90
52275;DHT22;38228;50.940;4.024;2024-01-16T02:01:06;0.90;99.90
52275;DHT22;38228;50.940;4.024;2024-01-16T02:03:45;0.90;99.90
52275;DHT22;38228;50.940;4.024;2024-01-16T02:06:12;1.10;99.90
52275;DHT22;38228;50.940;4.024;2024-01-16T02:08:41;1.10;99.90
52275;DHT22;38228;50.940;4.024;2024-01-16T02:11:07;1.00;99.90
52275;DHT22;38228;50.940;4.024;2024-01-16T02:13:33;1.00;99.90
52275;DHT22;38228;50.940;4.024;2024-01-16T02:16:00;1.10;99.90
52275;DHT22;38228;50.940;4.024;2024-01-16T02:18:26;1.00;99.90
52275;DHT22;38228;50.940;4.024;2024-01-16T02:20:52;1.00;99.90
52275;DHT22;38228;50.940;4.024;2024-01-16T02:23:26;0.90;99.90
52275;DHT22;38228;50.940;4.024;2024-01-16T02:25:53;1.00;99.90
52275;DHT22;38228;50.940;4.024;2024-01-16T02:28:18;0.90;99.90
52275;DHT22;38228;50.940;4.024;2024-01-16T02:30:44;0.90;99.90
52275;DHT22;38228;50.940;4.024;2024-01-16T02:33:10;0.80;99.90
52275;DHT22;38228;50.940;4.024;2024-01-16T02:35:36;0.80;99.90
52275;DHT22;38228;50.940;4.024;2024-01-16T02:38:01;0.80;99.90
52275;DHT22;38228;50.940;4.024;2024-01-16T02:40:27;0.90;99.90
52275;DHT22;38228;50.940;4.024;2024-01-16T02:42:52;0.90;99.90
52275;DHT22;38228;50.940;4.024;2024-01-16T02:45:18;0.80;99.90
52275;DHT22;38228;50.940;4.024;2024-01-16T02:47:44;0.70;99.90
52275;DHT22;38228;50.940;4.024;2024-01-16T02:50:10;0.80;99.90
52275;DHT22;38228;50.940;4.024;2024-01-16T02:52:36;0.80;99.90
52275;DHT22;38228;50.940;4.024;2024-01-16T02:55:01;0.70;99.90
52275;DHT22;38228;50.940;4.024;2024-01-16T02:57:27;0.80;99.90
52275;DHT22;38228;50.940;4.024;2024-01-16T02:59:53;0.70;99.90
52275;DHT22;38228;50.940;4.024;2024-01-16T03:02:18;0.70;99.90
52275;DHT22;38228;50.940;4.024;2024-01-16T03:04:44;0.80;99.90
52275;DHT22;38228;50.940;4.024;2024-01-16T03:07:10;0.90;99.90
52275;DHT22;38228;50.940;4.024;2024-01-16T03:09:35;0.90;99.90
52275;DHT22;38228;50.940;4.024;2024-01-16T03:12:02;0.80;99.90
52275;DHT22;38228;50.940;4.024;2024-01-16T03:14:27;0.80;99.90
52275;DHT22;38228;50.940;4.024;2024-01-16T03:16:53;0.80;99.90
52275;DHT22;38228;50.940;4.024;2024-01-16T03:19:19;0.90;99.90
52275;DHT22;38228;50.940;4.024;2024-01-16T03:21:45;0.90;99.90
52275;DHT22;38228;50.940;4.024;2024-01-16T03:24:10;1.00;99.90
52275;DHT22;38228;50.940;4.024;2024-01-16T03:26:36;1.00;99.90
52275;DHT22;38228;50.940;4.024;2024-01-16T03:29:05;1.00;99.90
52275;DHT22;38228;50.940;4.024;2024-01-16T03:31:31;0.90;99.90
52275;DHT22;38228;50.940;4.024;2024-01-16T03:33:57;1.00;99.90
52275;DHT22;38228;50.940;4.024;2024-01-16T03:36:23;0.90;99.90
52275;DHT22;38228;50.940;4.024;2024-01-16T03:38:48;0.90;99.90
52275;DHT22;38228;50.940;4.024;2024-01-16T03:41:14;0.90;99.90
52275;DHT22;38228;50.940;4.024;2024-01-16T03:43:40;0.90;99.90
52275;DHT22;38228;50.940;4.024;2024-01-16T03:46:06;0.90;99.90
52275;DHT22;38228;50.940;4.024;2024-01-16T03:48:32;0.90;99.90
52275;DHT22;38228;50.940;4.024;2024-01-16T03:50:57;1.00;99.90
52275;DHT22;38228;50.940;4.024;2024-01-16T03:53:23;0.90;99.90
52275;DHT22;38228;50.940;4.024;2024-01-16T03:55:50;0.90;99.90
52275;DHT22;38228;50.940;4.024;2024-01-16T03:58:16;0.90;99.90
52275;DHT22;38228;50.940;4.024;2024-01-16T04:00:42;0.80;99.90
52275;DHT22;38228;50.940;4.024;2024-01-16T04:03:08;0.90;99.90
52275;DHT22;38228;50.940;4.024;2024-01-16T04:05:34;0.90;99.90
52275;DHT22;38228;50.940;4.024;2024-01-16T04:08:00;0.90;99.90
52275;DHT22;38228;50.940;4.024;2024-01-16T04:10:26;1.00;99.90
52275;DHT22;38228;50.940;4.024;2024-01-16T04:12:51;0.80;99.90
52275;DHT22;38228;50.940;4.024;2024-01-16T04:15:17;0.90;99.90
52275;DHT22;38228;50.940;4.024;2024-01-16T04:17:43;0.80;99.90
52275;DHT22;38228;50.940;4.024;2024-01-16T04:20:09;0.70;99.90
52275;DHT22;38228;50.940;4.024;2024-01-16T04:22:35;0.80;99.90
52275;DHT22;38228;50.940;4.024;2024-01-16T04:25:01;0.80;99.90
52275;DHT22;38228;50.940;4.024;2024-01-16T04:27:30;0.80;99.90
52275;DHT22;38228;50.940;4.024;2024-01-16T04:29:57;0.80;99.90
52275;DHT22;38228;50.940;4.024;2024-01-16T04:32:22;0.80;99.90
52275;DHT22;38228;50.940;4.024;2024-01-16T04:34:48;0.70;99.90
52275;DHT22;38228;50.940;4.024;2024-01-16T04:37:14;0.80;99.90
52275;DHT22;38228;50.940;4.024;2024-01-16T04:39:39;0.70;99.90
52275;DHT22;38228;50.940;4.024;2024-01-16T04:42:05;0.70;99.90
52275;DHT22;38228;50.940;4.024;2024-01-16T04:44:30;0.80;99.90
52275;DHT22;38228;50.940;4.024;2024-01-16T04:46:56;0.70;99.90
52275;DHT22;38228;50.940;4.024;2024-01-16T04:49:22;0.70;99.90
52275;DHT22;38228;50.940;4.024;2024-01-16T04:51:47;0.70;99.90
52275;DHT22;38228;50.940;4.024;2024-01-16T04:54:13;0.60;99.90
52275;DHT22;38228;50.940;4.024;2024-01-16T04:56:39;0.70;99.90
52275;DHT22;38228;50.940;4.024;2024-01-16T04:59:04;0.70;99.90
52275;DHT22;38228;50.940;4.024;2024-01-16T05:01:30;0.70;99.90
52275;DHT22;38228;50.940;4.024;2024-01-16T05:03:56;0.80;99.90
52275;DHT22;38228;50.940;4.024;2024-01-16T05:06:22;0.80;99.90
52275;DHT22;38228;50.940;4.024;2024-01-16T05:08:47;0.90;99.90
52275;DHT22;38228;50.940;4.024;2024-01-16T05:11:14;0.70;99.90
52275;DHT22;38228;50.940;4.024;2024-01-16T05:13:39;0.50;99.90
52275;DHT22;38228;50.940;4.024;2024-01-16T05:16:05;0.60;99.90
52275;DHT22;38228;50.940;4.024;2024-01-16T05:18:31;0.60;99.90
52275;DHT22;38228;50.940;4.024;2024-01-16T05:20:59;0.60;99.90
52275;DHT22;38228;50.940;4.024;2024-01-16T05:23:24;0.50;99.90
52275;DHT22;38228;50.940;4.024;2024-01-16T05:25:50;0.60;99.90
52275;DHT22;38228;50.940;4.024;2024-01-16T05:28:16;0.70;99.90
52275;DHT22;38228;50.940;4.024;2024-01-16T05:30:42;0.50;99.90
52275;DHT22;38228;50.940;4.024;2024-01-16T05:33:08;0.50;99.90
52275;DHT22;38228;50.940;4.024;2024-01-16T05:35:34;0.50;99.90
52275;DHT22;38228;50.940;4.024;2024-01-16T05:37:59;0.40;99.90
52275;DHT22;38228;50.940;4.024;2024-01-16T05:40:25;0.40;99.90
52275;DHT22;38228;50.940;4.024;2024-01-16T05:42:51;0.50;99.90
52275;DHT22;38228;50.940;4.024;2024-01-16T05:45:17;0.30;99.90
52275;DHT22;38228;50.940;4.024;2024-01-16T05:47:43;0.30;99.90
52275;DHT22;38228;50.940;4.024;2024-01-16T05:50:09;0.50;99.90
52275;DHT22;38228;50.940;4.024;2024-01-16T05:52:35;0.60;99.90
52275;DHT22;38228;50.940;4.024;2024-01-16T05:55:01;0.60;99.90
52275;DHT22;38228;50.940;4.024;2024-01-16T05:57:29;0.50;99.90
52275;DHT22;38228;50.940;4.024;2024-01-16T05:59:57;0.50;99.90
52275;DHT22;38228;50.940;4.024;2024-01-16T06:02:23;0.50;99.90
52275;DHT22;38228;50.940;4.024;2024-01-16T06:04:48;0.50;99.90
52275;DHT22;38228;50.940;4.024;2024-01-16T06:07:14;0.50;99.90
52275;DHT22;38228;50.940;4.024;2024-01-16T06:09:40;0.50;99.90
52275;DHT22;38228;50.940;4.024;2024-01-16T06:12:06;0.50;99.90
52275;DHT22;38228;50.940;4.024;2024-01-16T06:14:33;0.50;99.90
52275;DHT22;38228;50.940;4.024;2024-01-16T06:16:59;0.60;99.90
52275;DHT22;38228;50.940;4.024;2024-01-16T06:19:24;0.50;99.90
52275;DHT22;38228;50.940;4.024;2024-01-16T06:21:50;0.40;99.90
52275;DHT22;38228;50.940;4.024;2024-01-16T06:24:16;0.50;99.90
52275;DHT22;38228;50.940;4.024;2024-01-16T06:26:41;0.60;99.90
52275;DHT22;38228;50.940;4.024;2024-01-16T06:29:08;0.70;99.90
52275;DHT22;38228;50.940;4.024;2024-01-16T06:31:34;0.70;99.90
52275;DHT22;38228;50.940;4.024;2024-01-16T06:33:59;0.60;99.90
52275;DHT22;38228;50.940;4.024;2024-01-16T06:36:25;0.60;99.90
52275;DHT22;38228;50.940;4.024;2024-01-16T06:38:51;0.70;99.90
52275;DHT22;38228;50.940;4.024;2024-01-16T06:41:17;0.70;99.90
52275;DHT22;38228;50.940;4.024;2024-01-16T06:43:43;0.70;99.90
52275;DHT22;38228;50.940;4.024;2024-01-16T06:46:08;0.50;99.90
52275;DHT22;38228;50.940;4.024;2024-01-16T06:48:35;0.40;99.90
52275;DHT22;38228;50.940;4.024;2024-01-16T06:51:02;0.40;99.90
52275;DHT22;38228;50.940;4.024;2024-01-16T06:53:28;0.40;99.90
52275;DHT22;38228;50.940;4.024;2024-01-16T06:55:53;0.30;99.90
52275;DHT22;38228;50.940;4.024;2024-01-16T06:58:19;0.40;99.90
52275;DHT22;38228;50.940;4.024;2024-01-16T07:00:46;0.30;99.90
52275;DHT22;38228;50.940;4.024;2024-01-16T07:03:12;0.30;99.90
52275;DHT22;38228;50.940;4.024;2024-01-16T07:05:39;0.20;99.90
52275;DHT22;38228;50.940;4.024;2024-01-16T07:08:07;0.30;99.90
52275;DHT22;38228;50.940;4.024;2024-01-16T07:10:33;0.40;99.90
52275;DHT22;38228;50.940;4.024;2024-01-16T07:12:59;0.50;99.90
52275;DHT22;38228;50.940;4.024;2024-01-16T07:15:25;0.50;99.90
52275;DHT22;38228;50.940;4.024;2024-01-16T07:17:51;0.50;99.90
52275;DHT22;38228;50.940;4.024;2024-01-16T07:20:17;0.40;99.90
52275;DHT22;38228;50.940;4.024;2024-01-16T07:22:42;0.30;99.90
52275;DHT22;38228;50.940;4.024;2024-01-16T07:25:08;0.30;99.90
52275;DHT22;38228;50.940;4.024;2024-01-16T07:27:34;0.30;99.90
52275;DHT22;38228;50.940;4.024;2024-01-16T07:30:00;0.20;99.90
52275;DHT22;38228;50.940;4.024;2024-01-16T07:32:26;0.40;99.90
52275;DHT22;38228;50.940;4.024;2024-01-16T07:34:52;0.40;99.90
52275;DHT22;38228;50.940;4.024;2024-01-16T07:37:18;0.60;99.90
52275;DHT22;38228;50.940;4.024;2024-01-16T07:39:44;0.60;99.90
52275;DHT22;38228;50.940;4.024;2024-01-16T07:42:10;0.80;99.90
52275;DHT22;38228;50.940;4.024;2024-01-16T07:44:36;0.80;99.90
52275;DHT22;38228;50.940;4.024;2024-01-16T07:47:02;0.80;99.90
52275;DHT22;38228;50.940;4.024;2024-01-16T07:49:28;0.70;99.90
52275;DHT22;38228;50.940;4.024;2024-01-16T07:51:55;0.60;99.90
52275;DHT22;38228;50.940;4.024;2024-01-16T07:54:20;0.50;99.90
52275;DHT22;38228;50.940;4.024;2024-01-16T07:56:46;0.40;99.90
52275;DHT22;38228;50.940;4.024;2024-01-16T07:59:12;0.60;99.90
52275;DHT22;38228;50.940;4.024;2024-01-16T08:01:39;0.70;99.90
52275;DHT22;38228;50.940;4.024;2024-01-16T08:04:05;0.70;99.90
52275;DHT22;38228;50.940;4.024;2024-01-16T08:06:31;0.70;99.90
52275;DHT22;38228;50.940;4.024;2024-01-16T08:08:56;0.80;99.90
52275;DHT22;38228;50.940;4.024;2024-01-16T08:11:23;0.80;99.90
52275;DHT22;38228;50.940;4.024;2024-01-16T08:13:48;0.70;99.90
52275;DHT22;38228;50.940;4.024;2024-01-16T08:16:14;0.80;99.90
52275;DHT22;38228;50.940;4.024;2024-01-16T08:18:40;0.90;99.90
52275;DHT22;38228;50.940;4.024;2024-01-16T08:21:05;0.90;99.90
52275;DHT22;38228;50.940;4.024;2024-01-16T08:23:33;0.90;99.90
52275;DHT22;38228;50.940;4.024;2024-01-16T08:25:59;0.90;99.90
52275;DHT22;38228;50.940;4.024;2024-01-16T08:28:26;0.80;99.90
52275;DHT22;38228;50.940;4.024;2024-01-16T08:30:52;0.80;99.90
52275;DHT22;38228;50.940;4.024;2024-01-16T08:33:18;0.80;99.90
52275;DHT22;38228;50.940;4.024;2024-01-16T08:35:44;0.80;99.90
52275;DHT22;38228;50.940;4.024;2024-01-16T08:38:10;0.80;99.90
52275;DHT22;38228;50.940;4.024;2024-01-16T08:40:35;1.00;99.90
52275;DHT22;38228;50.940;4.024;2024-01-16T08:43:01;1.00;99.90
52275;DHT22;38228;50.940;4.024;2024-01-16T08:45:29;1.00;99.90
52275;DHT22;38228;50.940;4.024;2024-01-16T08:47:55;1.00;99.90
52275;DHT22;38228;50.940;4.024;2024-01-16T08:50:20;1.00;99.90
52275;DHT22;38228;50.940;4.024;2024-01-16T08:52:46;1.00;99.90
52275;DHT22;38228;50.940;4.024;2024-01-16T08:55:12;0.90;99.90
52275;DHT22;38228;50.940;4.024;2024-01-16T08:57:37;1.00;99.90
52275;DHT22;38228;50.940;4.024;2024-01-16T09:00:04;1.10;99.90
52275;DHT22;38228;50.940;4.024;2024-01-16T09:02:31;1.20;99.90
52275;DHT22;38228;50.940;4.024;2024-01-16T09:04:57;1.30;99.90
52275;DHT22;38228;50.940;4.024;2024-01-16T09:07:24;1.30;99.90
52275;DHT22;38228;50.940;4.024;2024-01-16T09:09:50;1.30;99.90
52275;DHT22;38228;50.940;4.024;2024-01-16T09:12:15;1.30;99.90
52275;DHT22;38228;50.940;4.024;2024-01-16T09:14:41;1.40;99.90
52275;DHT22;38228;50.940;4.024;2024-01-16T09:17:07;1.20;99.90
52275;DHT22;38228;50.940;4.024;2024-01-16T09:19:33;1.10;99.90
52275;DHT22;38228;50.940;4.024;2024-01-16T09:21:58;1.20;99.90
52275;DHT22;38228;50.940;4.024;2024-01-16T09:24:24;1.40;99.90
52275;DHT22;38228;50.940;4.024;2024-01-16T09:26:50;1.50;99.90
52275;DHT22;38228;50.940;4.024;2024-01-16T09:29:15;1.50;99.90
52275;DHT22;38228;50.940;4.024;2024-01-16T09:31:42;1.60;99.90
52275;DHT22;38228;50.940;4.024;2024-01-16T09:34:07;1.50;99.90
52275;DHT22;38228;50.940;4.024;2024-01-16T09:36:33;1.50;99.90
52275;DHT22;38228;50.940;4.024;2024-01-16T09:39:02;1.20;99.90
52275;DHT22;38228;50.940;4.024;2024-01-16T09:41:28;1.30;99.90
52275;DHT22;38228;50.940;4.024;2024-01-16T09:43:54;1.40;99.90
52275;DHT22;38228;50.940;4.024;2024-01-16T09:46:22;1.50;99.90
52275;DHT22;38228;50.940;4.024;2024-01-16T09:48:51;1.40;99.90
52275;DHT22;38228;50.940;4.024;2024-01-16T09:51:18;1.40;99.90
52275;DHT22;38228;50.940;4.024;2024-01-16T09:53:44;1.50;99.90
52275;DHT22;38228;50.940;4.024;2024-01-16T09:56:17;1.40;99.90
52275;DHT22;38228;50.940;4.024;2024-01-16T09:58:48;1.50;99.90
52275;DHT22;38228;50.940;4.024;2024-01-16T10:01:16;1.60;99.90
52275;DHT22;38228;50.940;4.024;2024-01-16T10:03:44;1.50;99.90
52275;DHT22;38228;50.940;4.024;2024-01-16T10:06:11;1.60;99.90
52275;DHT22;38228;50.940;4.024;2024-01-16T10:08:37;1.70;99.90
52275;DHT22;38228;50.940;4.024;2024-01-16T10:11:03;1.80;99.90
52275;DHT22;38228;50.940;4.024;2024-01-16T10:13:31;1.80;99.90
52275;DHT22;38228;50.940;4.024;2024-01-16T10:15:57;1.80;99.90
52275;DHT22;38228;50.940;4.024;2024-01-16T10:18:29;1.90;99.90
52275;DHT22;38228;50.940;4.024;2024-01-16T10:20:59;2.00;99.90
52275;DHT22;38228;50.940;4.024;2024-01-16T10:23:26;1.90;99.90
52275;DHT22;38228;50.940;4.024;2024-01-16T10:26:08;1.90;99.90
52275;DHT22;38228;50.940;4.024;2024-01-16T10:28:35;2.10;99.90
52275;DHT22;38228;50.940;4.024;2024-01-16T10:31:02;2.00;99.90
52275;DHT22;38228;50.940;4.024;2024-01-16T10:33:28;2.10;99.90
52275;DHT22;38228;50.940;4.024;2024-01-16T10:36:16;2.30;99.90
52275;DHT22;38228;50.940;4.024;2024-01-16T10:38:44;2.20;99.90
52275;DHT22;38228;50.940;4.024;2024-01-16T10:41:15;2.30;99.90
52275;DHT22;38228;50.940;4.024;2024-01-16T10:43:42;2.30;99.90
52275;DHT22;38228;50.940;4.024;2024-01-16T10:46:16;2.30;99.90
52275;DHT22;38228;50.940;4.024;2024-01-16T10:48:44;2.50;99.90
52275;DHT22;38228;50.940;4.024;2024-01-16T10:51:16;2.60;99.90
52275;DHT22;38228;50.940;4.024;2024-01-16T10:53:43;2.70;99.90
52275;DHT22;38228;50.940;4.024;2024-01-16T10:56:13;2.80;99.90
52275;DHT22;38228;50.940;4.024;2024-01-16T10:58:42;2.80;99.90
52275;DHT22;38228;50.940;4.024;2024-01-16T11:01:15;2.90;99.90
52275;DHT22;38228;50.940;4.024;2024-01-16T11:03:49;3.00;99.90
52275;DHT22;38228;50.940;4.024;2024-01-16T11:06:18;3.00;99.90
52275;DHT22;38228;50.940;4.024;2024-01-16T11:08:48;3.00;99.90
52275;DHT22;38228;50.940;4.024;2024-01-16T11:11:15;3.10;99.90
52275;DHT22;38228;50.940;4.024;2024-01-16T11:13:42;3.20;99.90
52275;DHT22;38228;50.940;4.024;2024-01-16T11:16:12;3.20;99.90
52275;DHT22;38228;50.940;4.024;2024-01-16T11:18:37;3.20;99.90
52275;DHT22;38228;50.940;4.024;2024-01-16T11:21:09;3.30;99.90
52275;DHT22;38228;50.940;4.024;2024-01-16T11:23:36;3.50;99.90
52275;DHT22;38228;50.940;4.024;2024-01-16T11:26:41;3.50;99.90
52275;DHT22;38228;50.940;4.024;2024-01-16T11:31:55;3.50;99.90
52275;DHT22;38228;50.940;4.024;2024-01-16T11:37:12;3.70;99.90
52275;DHT22;38228;50.940;4.024;2024-01-16T11:39:38;3.60;99.90
52275;DHT22;38228;50.940;4.024;2024-01-16T11:42:06;3.70;99.90
52275;DHT22;38228;50.940;4.024;2024-01-16T11:44:48;3.60;99.90
52275;DHT22;38228;50.940;4.024;2024-01-16T11:47:16;3.70;99.90
52275;DHT22;38228;50.940;4.024;2024-01-16T11:49:42;4.00;99.90
52275;DHT22;38228;50.940;4.024;2024-01-16T11:52:08;4.10;99.90
52275;DHT22;38228;50.940;4.024;2024-01-16T11:54:37;4.20;99.90
52275;DHT22;38228;50.940;4.024;2024-01-16T12:00:03;4.00;99.90
52275;DHT22;38228;50.940;4.024;2024-01-16T12:05:13;4.10;99.90
52275;DHT22;38228;50.940;4.024;2024-01-16T12:07:52;4.10;99.90
52275;DHT22;38228;50.940;4.024;2024-01-16T12:10:20;4.10;99.90
52275;DHT22;38228;50.940;4.024;2024-01-16T12:12:48;4.20;99.90
52275;DHT22;38228;50.940;4.024;2024-01-16T12:15:20;4.00;99.90
52275;DHT22;38228;50.940;4.024;2024-01-16T12:18:00;4.00;99.90
52275;DHT22;38228;50.940;4.024;2024-01-16T12:20:29;3.90;99.90
52275;DHT22;38228;50.940;4.024;2024-01-16T12:22:56;4.00;99.90
52275;DHT22;38228;50.940;4.024;2024-01-16T12:25:22;4.00;99.90
52275;DHT22;38228;50.940;4.024;2024-01-16T12:27:58;4.10;99.90
52275;DHT22;38228;50.940;4.024;2024-01-16T12:30:34;4.10;99.90
52275;DHT22;38228;50.940;4.024;2024-01-16T12:33:07;4.20;99.90
52275;DHT22;38228;50.940;4.024;2024-01-16T12:35:37;4.10;99.90
52275;DHT22;38228;50.940;4.024;2024-01-16T12:38:05;4.20;99.90
52275;DHT22;38228;50.940;4.024;2024-01-16T12:40:32;4.10;99.90
52275;DHT22;38228;50.940;4.024;2024-01-16T12:42:58;4.10;99.90
52275;DHT22;38228;50.940;4.024;2024-01-16T12:45:24;4.00;99.90
52275;DHT22;38228;50.940;4.024;2024-01-16T12:47:51;4.00;99.90
52275;DHT22;38228;50.940;4.024;2024-01-16T12:50:22;4.00;99.90
52275;DHT22;38228;50.940;4.024;2024-01-16T12:52:49;4.00;99.90
52275;DHT22;38228;50.940;4.024;2024-01-16T12:55:16;4.00;99.90
52275;DHT22;38228;50.940;4.024;2024-01-16T12:57:42;3.90;99.90
52275;DHT22;38228;50.940;4.024;2024-01-16T13:00:21;4.00;99.90
52275;DHT22;38228;50.940;4.024;2024-01-16T13:02:52;4.10;99.90
52275;DHT22;38228;50.940;4.024;2024-01-16T13:05:18;4.20;99.90
52275;DHT22;38228;50.940;4.024;2024-01-16T13:07:44;4.10;99.90
52275;DHT22;38228;50.940;4.024;2024-01-16T13:10:11;4.30;99.90
52275;DHT22;38228;50.940;4.024;2024-01-16T13:12:38;4.20;99.90
52275;DHT22;38228;50.940;4.024;2024-01-16T13:15:04;4.10;99.90
52275;DHT22;38228;50.940;4.024;2024-01-16T13:17:34;4.20;99.90
52275;DHT22;38228;50.940;4.024;2024-01-16T13:20:00;4.30;99.90
52275;DHT22;38228;50.940;4.024;2024-01-16T13:22:26;4.10;99.90
52275;DHT22;38228;50.940;4.024;2024-01-16T13:24:52;4.00;99.90
52275;DHT22;38228;50.940;4.024;2024-01-16T13:27:17;3.90;99.90
52275;DHT22;38228;50.940;4.024;2024-01-16T13:29:43;3.90;99.90
52275;DHT22;38228;50.940;4.024;2024-01-16T13:32:10;3.90;99.90
52275;DHT22;38228;50.940;4.024;2024-01-16T13:34:36;3.80;99.90
52275;DHT22;38228;50.940;4.024;2024-01-16T13:37:04;4.00;99.90
52275;DHT22;38228;50.940;4.024;2024-01-16T13:39:30;4.00;99.90
52275;DHT22;38228;50.940;4.024;2024-01-16T13:42:01;4.00;99.90
52275;DHT22;38228;50.940;4.024;2024-01-16T13:44:31;4.20;99.90
52275;DHT22;38228;50.940;4.024;2024-01-16T13:46:57;4.20;99.90
52275;DHT22;38228;50.940;4.024;2024-01-16T13:49:22;4.20;99.90
52275;DHT22;38228;50.940;4.024;2024-01-16T13:51:48;4.30;99.90
52275;DHT22;38228;50.940;4.024;2024-01-16T13:54:14;4.20;99.90
52275;DHT22;38228;50.940;4.024;2024-01-16T13:56:41;4.10;99.90
52275;DHT22;38228;50.940;4.024;2024-01-16T13:59:08;4.00;99.90
52275;DHT22;38228;50.940;4.024;2024-01-16T14:01:34;3.80;99.90
52275;DHT22;38228;50.940;4.024;2024-01-16T14:03:59;4.00;99.90
52275;DHT22;38228;50.940;4.024;2024-01-16T14:06:25;4.10;99.90
52275;DHT22;38228;50.940;4.024;2024-01-16T14:08:51;4.30;99.90
52275;DHT22;38228;50.940;4.024;2024-01-16T14:11:16;4.40;99.90
52275;DHT22;38228;50.940;4.024;2024-01-16T14:13:42;4.50;99.90
52275;DHT22;38228;50.940;4.024;2024-01-16T14:16:09;4.50;99.90
52275;DHT22;38228;50.940;4.024;2024-01-16T14:18:34;4.60;99.90
52275;DHT22;38228;50.940;4.024;2024-01-16T14:21:00;4.80;99.90
52275;DHT22;38228;50.940;4.024;2024-01-16T14:23:26;4.90;99.90
52275;DHT22;38228;50.940;4.024;2024-01-16T14:25:52;5.10;99.90
52275;DHT22;38228;50.940;4.024;2024-01-16T14:28:17;5.20;99.90
52275;DHT22;38228;50.940;4.024;2024-01-16T14:30:43;5.70;99.90
52275;DHT22;38228;50.940;4.024;2024-01-16T14:33:10;6.30;99.90
52275;DHT22;38228;50.940;4.024;2024-01-16T14:35:36;6.80;99.90
52275;DHT22;38228;50.940;4.024;2024-01-16T14:38:03;7.20;99.90
52275;DHT22;38228;50.940;4.024;2024-01-16T14:40:29;7.50;99.90
52275;DHT22;38228;50.940;4.024;2024-01-16T14:42:55;7.60;99.90
52275;DHT22;38228;50.940;4.024;2024-01-16T14:45:25;7.50;99.90
52275;DHT22;38228;50.940;4.024;2024-01-16T14:47:52;7.60;99.90
52275;DHT22;38228;50.940;4.024;2024-01-16T14:50:21;7.60;99.90
52275;DHT22;38228;50.940;4.024;2024-01-16T14:52:51;7.30;99.90
52275;DHT22;38228;50.940;4.024;2024-01-16T14:55:17;7.00;99.90
52275;DHT22;38228;50.940;4.024;2024-01-16T14:57:43;6.40;99.90
52275;DHT22;38228;50.940;4.024;2024-01-16T15:00:12;5.80;99.90
52275;DHT22;38228;50.940;4.024;2024-01-16T15:02:48;5.30;99.90
52275;DHT22;38228;50.940;4.024;2024-01-16T15:05:18;5.10;99.90
52275;DHT22;38228;50.940;4.024;2024-01-16T15:07:44;4.80;99.90
52275;DHT22;38228;50.940;4.024;2024-01-16T15:10:11;4.70;99.90
52275;DHT22;38228;50.940;4.024;2024-01-16T15:12:40;4.40;99.90
52275;DHT22;38228;50.940;4.024;2024-01-16T15:15:10;4.30;99.90
52275;DHT22;38228;50.940;4.024;2024-01-16T15:17:38;4.30;99.90
52275;DHT22;38228;50.940;4.024;2024-01-16T15:20:05;4.10;99.90
52275;DHT22;38228;50.940;4.024;2024-01-16T15:22:40;3.80;99.90
52275;DHT22;38228;50.940;4.024;2024-01-16T15:25:07;3.70;99.90
52275;DHT22;38228;50.940;4.024;2024-01-16T15:27:33;3.60;99.90
52275;DHT22;38228;50.940;4.024;2024-01-16T15:29:58;3.60;99.90
52275;DHT22;38228;50.940;4.024;2024-01-16T15:32:25;3.40;99.90
52275;DHT22;38228;50.940;4.024;2024-01-16T15:34:51;3.40;99.90
52275;DHT22;38228;50.940;4.024;2024-01-16T15:37:16;3.40;99.90
52275;DHT22;38228;50.940;4.024;2024-01-16T15:39:42;3.30;99.90
52275;DHT22;38228;50.940;4.024;2024-01-16T15:42:08;3.40;99.90
52275;DHT22;38228;50.940;4.024;2024-01-16T15:44:33;3.40;99.90
52275;DHT22;38228;50.940;4.024;2024-01-16T15:47:00;3.40;99.90
52275;DHT22;38228;50.940;4.024;2024-01-16T15:49:27;3.50;99.90
52275;DHT22;38228;50.940;4.024;2024-01-16T15:51:54;3.50;99.90
52275;DHT22;38228;50.940;4.024;2024-01-16T15:54:22;3.40;99.90